KROX/ROX METAR and TAF weather

Enter ICAO airport designator
Station Type Date Time Source
KROX METAR 2020/07/12 00:36 UTC NOAA

KROX 120036Z AUTO 02005KT 10SM CLR 23/17 A2997 RMK AO2 TSNO PWINO


Station Type Date Time Source
KROX Decoded METAR 2020/07/12 00:36 UTC NOAA

Roseau, Roseau Municipal Airport/Rudy Billberg Field, MN, United States (KROX) 48-51N 095-42W
Jul 11, 2020 - 08:36 PM EDT / 2020.07.12 0036 UTC
Wind: from the NNE (020 degrees) at 6 MPH (5 KT):0
Visibility: 10 mile(s):0
Sky conditions: clear
Temperature: 73 F (23 C)
Dew Point: 62 F (17 C)
Relative Humidity: 68%
Pressure (altimeter): 29.97 in. Hg (1014 hPa)
ob: KROX 120036Z AUTO 02005KT 10SM CLR 23/17 A2997 RMK AO2 TSNO PWINO
cycle: 0

Station Type Date Time Source
KROX TAF UTC NOAA

Error!

Example: see airport list